EIKN/NOC METAR and TAF weather

Enter ICAO airport designator
Station Type Date Time Source
EIKN METAR 2021/04/26 10:30 UTC NOAA

EIKN 261030Z 31004KT 250V020 CAVOK 13/M00 Q1023 NOSIG


Station Type Date Time Source
EIKN Decoded METAR 2021/04/26 10:30 UTC NOAA

Connaught, Ireland (EIKN) 53-54-37N 008-49-05W
Apr 26, 2021 - 06:30 AM EDT / 2021.04.26 1030 UTC
Wind: from the NW (310 degrees) at 5 MPH (4 KT) (direction variable):0
Visibility: greater than 7 mile(s):0
Temperature: 55 F (13 C)
Dew Point: 32 F (0 C)
Relative Humidity: 40%
Pressure (altimeter): 30.21 in. Hg (1023 hPa)
ob: EIKN 261030Z 31004KT 250V020 CAVOK 13/M00 Q1023 NOSIG
cycle: 10

Station Type Date Time Source
EIKN TAF 2021/04/26 11:12 UTC NOAA

TAF TAF EIKN 261106Z 2611/2706 CNL

Example: see airport list